sensor_id;sensor_type;location;lat;lon;timestamp;P1;durP1;ratioP1;P2;durP2;ratioP2
18320;SDS011;54904;54.350;18.664;2023-12-28T00:02:20;21.50;;;8.93;;
18320;SDS011;54904;54.350;18.664;2023-12-28T00:04:47;20.60;;;8.20;;
18320;SDS011;54904;54.350;18.664;2023-12-28T00:07:14;21.57;;;8.00;;
18320;SDS011;54904;54.350;18.664;2023-12-28T00:09:41;15.27;;;6.50;;
18320;SDS011;54904;54.350;18.664;2023-12-28T00:12:08;16.57;;;6.73;;
18320;SDS011;54904;54.350;18.664;2023-12-28T00:14:35;10.70;;;5.60;;
18320;SDS011;54904;54.350;18.664;2023-12-28T00:17:02;20.43;;;7.27;;
18320;SDS011;54904;54.350;18.664;2023-12-28T00:19:30;23.17;;;9.63;;
18320;SDS011;54904;54.350;18.664;2023-12-28T00:21:57;17.30;;;8.33;;
18320;SDS011;54904;54.350;18.664;2023-12-28T00:24:24;20.73;;;8.73;;
18320;SDS011;54904;54.350;18.664;2023-12-28T00:26:51;20.50;;;8.33;;
18320;SDS011;54904;54.350;18.664;2023-12-28T00:29:18;20.63;;;8.40;;
18320;SDS011;54904;54.350;18.664;2023-12-28T00:31:46;22.00;;;8.40;;
18320;SDS011;54904;54.350;18.664;2023-12-28T00:34:13;21.00;;;7.97;;
18320;SDS011;54904;54.350;18.664;2023-12-28T00:36:41;22.87;;;8.23;;
18320;SDS011;54904;54.350;18.664;2023-12-28T00:39:08;18.50;;;7.30;;
18320;SDS011;54904;54.350;18.664;2023-12-28T00:41:35;20.13;;;7.70;;
18320;SDS011;54904;54.350;18.664;2023-12-28T00:44:02;20.83;;;7.80;;
18320;SDS011;54904;54.350;18.664;2023-12-28T00:46:30;16.83;;;7.20;;
18320;SDS011;54904;54.350;18.664;2023-12-28T00:48:57;21.10;;;8.03;;
18320;SDS011;54904;54.350;18.664;2023-12-28T00:51:24;18.33;;;7.43;;
18320;SDS011;54904;54.350;18.664;2023-12-28T00:53:52;24.00;;;7.50;;
18320;SDS011;54904;54.350;18.664;2023-12-28T00:56:19;22.40;;;7.73;;
18320;SDS011;54904;54.350;18.664;2023-12-28T00:58:47;19.60;;;7.37;;
18320;SDS011;54904;54.350;18.664;2023-12-28T01:01:13;25.40;;;8.00;;
18320;SDS011;54904;54.350;18.664;2023-12-28T01:03:41;18.90;;;7.77;;
18320;SDS011;54904;54.350;18.664;2023-12-28T01:06:08;19.10;;;7.77;;
18320;SDS011;54904;54.350;18.664;2023-12-28T01:08:35;20.90;;;7.63;;
18320;SDS011;54904;54.350;18.664;2023-12-28T01:11:03;17.23;;;7.83;;
18320;SDS011;54904;54.350;18.664;2023-12-28T01:13:31;21.67;;;7.03;;
18320;SDS011;54904;54.350;18.664;2023-12-28T01:15:58;23.10;;;7.80;;
18320;SDS011;54904;54.350;18.664;2023-12-28T01:18:25;21.70;;;8.27;;
18320;SDS011;54904;54.350;18.664;2023-12-28T01:20:52;20.27;;;8.13;;
18320;SDS011;54904;54.350;18.664;2023-12-28T01:23:19;16.50;;;7.67;;
18320;SDS011;54904;54.350;18.664;2023-12-28T01:25:46;21.57;;;8.13;;
18320;SDS011;54904;54.350;18.664;2023-12-28T01:28:14;23.73;;;7.63;;
18320;SDS011;54904;54.350;18.664;2023-12-28T01:30:41;21.13;;;8.63;;
18320;SDS011;54904;54.350;18.664;2023-12-28T01:33:09;20.33;;;8.07;;
18320;SDS011;54904;54.350;18.664;2023-12-28T01:35:36;24.53;;;8.57;;
18320;SDS011;54904;54.350;18.664;2023-12-28T01:38:03;18.30;;;8.60;;
18320;SDS011;54904;54.350;18.664;2023-12-28T01:40:30;19.43;;;8.43;;
18320;SDS011;54904;54.350;18.664;2023-12-28T01:42:57;23.47;;;9.43;;
18320;SDS011;54904;54.350;18.664;2023-12-28T01:45:26;23.30;;;8.67;;
18320;SDS011;54904;54.350;18.664;2023-12-28T01:47:53;23.40;;;8.50;;
18320;SDS011;54904;54.350;18.664;2023-12-28T01:50:21;24.43;;;9.83;;
18320;SDS011;54904;54.350;18.664;2023-12-28T01:52:51;21.10;;;8.50;;
18320;SDS011;54904;54.350;18.664;2023-12-28T01:55:18;20.43;;;8.60;;
18320;SDS011;54904;54.350;18.664;2023-12-28T01:57:47;21.30;;;8.03;;
18320;SDS011;54904;54.350;18.664;2023-12-28T02:00:14;20.67;;;7.10;;
18320;SDS011;54904;54.350;18.664;2023-12-28T02:02:43;25.03;;;9.93;;
18320;SDS011;54904;54.350;18.664;2023-12-28T02:05:11;18.70;;;9.00;;
18320;SDS011;54904;54.350;18.664;2023-12-28T02:07:38;21.63;;;8.67;;
18320;SDS011;54904;54.350;18.664;2023-12-28T02:10:06;24.00;;;9.87;;
18320;SDS011;54904;54.350;18.664;2023-12-28T02:12:33;24.50;;;10.23;;
18320;SDS011;54904;54.350;18.664;2023-12-28T02:15:00;22.30;;;9.50;;
18320;SDS011;54904;54.350;18.664;2023-12-28T02:17:28;27.07;;;9.90;;
18320;SDS011;54904;54.350;18.664;2023-12-28T02:20:01;25.17;;;9.93;;
18320;SDS011;54904;54.350;18.664;2023-12-28T02:22:31;30.00;;;10.90;;
18320;SDS011;54904;54.350;18.664;2023-12-28T02:25:05;27.27;;;11.10;;
18320;SDS011;54904;54.350;18.664;2023-12-28T02:27:33;29.87;;;11.13;;
18320;SDS011;54904;54.350;18.664;2023-12-28T02:30:03;25.57;;;9.10;;
18320;SDS011;54904;54.350;18.664;2023-12-28T02:32:35;31.83;;;10.37;;
18320;SDS011;54904;54.350;18.664;2023-12-28T02:35:09;27.77;;;9.83;;
18320;SDS011;54904;54.350;18.664;2023-12-28T02:37:43;26.30;;;9.50;;
18320;SDS011;54904;54.350;18.664;2023-12-28T02:40:16;22.30;;;9.00;;
18320;SDS011;54904;54.350;18.664;2023-12-28T02:42:43;22.87;;;9.17;;
18320;SDS011;54904;54.350;18.664;2023-12-28T02:45:12;27.27;;;9.67;;
18320;SDS011;54904;54.350;18.664;2023-12-28T02:47:39;31.20;;;10.30;;
18320;SDS011;54904;54.350;18.664;2023-12-28T02:50:07;24.90;;;8.57;;
18320;SDS011;54904;54.350;18.664;2023-12-28T02:52:34;29.67;;;9.20;;
18320;SDS011;54904;54.350;18.664;2023-12-28T02:55:01;25.23;;;8.73;;
18320;SDS011;54904;54.350;18.664;2023-12-28T02:57:30;26.57;;;9.60;;
18320;SDS011;54904;54.350;18.664;2023-12-28T02:59:57;24.40;;;8.77;;
18320;SDS011;54904;54.350;18.664;2023-12-28T03:02:27;18.00;;;7.60;;
18320;SDS011;54904;54.350;18.664;2023-12-28T03:04:54;26.17;;;8.60;;
18320;SDS011;54904;54.350;18.664;2023-12-28T03:07:21;26.83;;;9.23;;
18320;SDS011;54904;54.350;18.664;2023-12-28T03:09:48;17.63;;;8.47;;
18320;SDS011;54904;54.350;18.664;2023-12-28T03:12:15;20.77;;;7.73;;
18320;SDS011;54904;54.350;18.664;2023-12-28T03:14:44;20.27;;;7.60;;
18320;SDS011;54904;54.350;18.664;2023-12-28T03:17:11;18.87;;;7.83;;
18320;SDS011;54904;54.350;18.664;2023-12-28T03:19:38;21.90;;;7.57;;
18320;SDS011;54904;54.350;18.664;2023-12-28T03:22:05;17.77;;;7.00;;
18320;SDS011;54904;54.350;18.664;2023-12-28T03:24:32;16.13;;;6.57;;
18320;SDS011;54904;54.350;18.664;2023-12-28T03:26:59;15.70;;;6.90;;
18320;SDS011;54904;54.350;18.664;2023-12-28T03:29:27;15.37;;;6.90;;
18320;SDS011;54904;54.350;18.664;2023-12-28T03:31:56;18.10;;;6.13;;
18320;SDS011;54904;54.350;18.664;2023-12-28T03:34:24;18.53;;;7.30;;
18320;SDS011;54904;54.350;18.664;2023-12-28T03:36:54;18.80;;;7.33;;
18320;SDS011;54904;54.350;18.664;2023-12-28T03:39:22;15.93;;;7.47;;
18320;SDS011;54904;54.350;18.664;2023-12-28T03:41:49;13.40;;;6.20;;
18320;SDS011;54904;54.350;18.664;2023-12-28T03:44:18;18.97;;;6.80;;
18320;SDS011;54904;54.350;18.664;2023-12-28T03:46:46;18.10;;;6.73;;
18320;SDS011;54904;54.350;18.664;2023-12-28T03:49:16;19.67;;;7.17;;
18320;SDS011;54904;54.350;18.664;2023-12-28T03:51:43;18.07;;;7.07;;
18320;SDS011;54904;54.350;18.664;2023-12-28T03:54:10;16.53;;;6.27;;
18320;SDS011;54904;54.350;18.664;2023-12-28T03:56:40;16.33;;;6.70;;
18320;SDS011;54904;54.350;18.664;2023-12-28T03:59:08;17.43;;;7.13;;
18320;SDS011;54904;54.350;18.664;2023-12-28T04:01:35;16.73;;;6.80;;
18320;SDS011;54904;54.350;18.664;2023-12-28T04:04:02;14.20;;;6.93;;
18320;SDS011;54904;54.350;18.664;2023-12-28T04:06:32;18.87;;;7.40;;
18320;SDS011;54904;54.350;18.664;2023-12-28T04:08:59;23.30;;;8.27;;
18320;SDS011;54904;54.350;18.664;2023-12-28T04:11:26;21.43;;;8.47;;
18320;SDS011;54904;54.350;18.664;2023-12-28T04:13:53;20.13;;;7.87;;
18320;SDS011;54904;54.350;18.664;2023-12-28T04:16:21;18.20;;;8.10;;
18320;SDS011;54904;54.350;18.664;2023-12-28T04:18:48;22.97;;;8.53;;
18320;SDS011;54904;54.350;18.664;2023-12-28T04:21:15;20.20;;;7.20;;
18320;SDS011;54904;54.350;18.664;2023-12-28T04:23:44;14.43;;;6.33;;
18320;SDS011;54904;54.350;18.664;2023-12-28T04:26:11;21.10;;;8.13;;
18320;SDS011;54904;54.350;18.664;2023-12-28T04:28:38;19.37;;;7.63;;
18320;SDS011;54904;54.350;18.664;2023-12-28T04:31:06;21.87;;;8.47;;
18320;SDS011;54904;54.350;18.664;2023-12-28T04:33:33;24.30;;;9.57;;
18320;SDS011;54904;54.350;18.664;2023-12-28T04:36:01;16.43;;;7.67;;
18320;SDS011;54904;54.350;18.664;2023-12-28T04:38:30;19.60;;;8.00;;
18320;SDS011;54904;54.350;18.664;2023-12-28T04:41:00;20.57;;;8.73;;
18320;SDS011;54904;54.350;18.664;2023-12-28T04:43:27;15.83;;;8.57;;
18320;SDS011;54904;54.350;18.664;2023-12-28T04:45:54;21.87;;;8.87;;
18320;SDS011;54904;54.350;18.664;2023-12-28T04:48:21;28.07;;;9.43;;
18320;SDS011;54904;54.350;18.664;2023-12-28T04:50:50;24.93;;;9.47;;
18320;SDS011;54904;54.350;18.664;2023-12-28T04:53:18;25.33;;;9.57;;
18320;SDS011;54904;54.350;18.664;2023-12-28T04:55:45;22.73;;;8.87;;
18320;SDS011;54904;54.350;18.664;2023-12-28T04:58:13;21.80;;;9.73;;
18320;SDS011;54904;54.350;18.664;2023-12-28T05:00:40;19.93;;;8.90;;
18320;SDS011;54904;54.350;18.664;2023-12-28T05:03:07;23.00;;;9.20;;
18320;SDS011;54904;54.350;18.664;2023-12-28T05:05:35;23.30;;;9.10;;
18320;SDS011;54904;54.350;18.664;2023-12-28T05:08:02;24.30;;;9.17;;
18320;SDS011;54904;54.350;18.664;2023-12-28T05:10:29;23.50;;;9.67;;
18320;SDS011;54904;54.350;18.664;2023-12-28T05:12:56;20.37;;;8.33;;
18320;SDS011;54904;54.350;18.664;2023-12-28T05:15:25;23.03;;;8.43;;
18320;SDS011;54904;54.350;18.664;2023-12-28T05:17:52;24.47;;;9.13;;
18320;SDS011;54904;54.350;18.664;2023-12-28T05:20:19;19.37;;;7.80;;
18320;SDS011;54904;54.350;18.664;2023-12-28T05:22:46;19.67;;;8.43;;
18320;SDS011;54904;54.350;18.664;2023-12-28T05:25:13;20.10;;;8.37;;
18320;SDS011;54904;54.350;18.664;2023-12-28T05:27:40;21.37;;;9.10;;
18320;SDS011;54904;54.350;18.664;2023-12-28T05:30:08;17.47;;;8.33;;
18320;SDS011;54904;54.350;18.664;2023-12-28T05:32:39;23.17;;;9.17;;
18320;SDS011;54904;54.350;18.664;2023-12-28T05:35:06;16.37;;;7.67;;
18320;SDS011;54904;54.350;18.664;2023-12-28T05:37:33;20.73;;;8.03;;
18320;SDS011;54904;54.350;18.664;2023-12-28T05:40:00;19.30;;;7.43;;
18320;SDS011;54904;54.350;18.664;2023-12-28T05:42:28;13.97;;;6.97;;
18320;SDS011;54904;54.350;18.664;2023-12-28T05:44:55;19.53;;;8.60;;
18320;SDS011;54904;54.350;18.664;2023-12-28T05:47:22;15.27;;;7.40;;
18320;SDS011;54904;54.350;18.664;2023-12-28T05:49:50;15.13;;;6.83;;
18320;SDS011;54904;54.350;18.664;2023-12-28T05:52:17;17.47;;;7.53;;
18320;SDS011;54904;54.350;18.664;2023-12-28T05:54:45;12.93;;;6.63;;
18320;SDS011;54904;54.350;18.664;2023-12-28T05:57:13;18.03;;;7.27;;
18320;SDS011;54904;54.350;18.664;2023-12-28T05:59:40;20.63;;;8.37;;
18320;SDS011;54904;54.350;18.664;2023-12-28T06:02:07;19.73;;;7.63;;
18320;SDS011;54904;54.350;18.664;2023-12-28T06:04:37;19.30;;;7.77;;
18320;SDS011;54904;54.350;18.664;2023-12-28T06:07:05;16.90;;;6.57;;
18320;SDS011;54904;54.350;18.664;2023-12-28T06:09:32;18.00;;;6.83;;
18320;SDS011;54904;54.350;18.664;2023-12-28T06:11:59;13.43;;;5.63;;
18320;SDS011;54904;54.350;18.664;2023-12-28T06:14:26;14.47;;;5.60;;
18320;SDS011;54904;54.350;18.664;2023-12-28T06:16:55;15.73;;;6.20;;
18320;SDS011;54904;54.350;18.664;2023-12-28T06:19:22;15.70;;;6.73;;
18320;SDS011;54904;54.350;18.664;2023-12-28T06:21:49;11.53;;;5.90;;
18320;SDS011;54904;54.350;18.664;2023-12-28T06:24:18;16.33;;;6.47;;
18320;SDS011;54904;54.350;18.664;2023-12-28T06:26:45;13.87;;;6.33;;
18320;SDS011;54904;54.350;18.664;2023-12-28T06:29:12;12.70;;;6.07;;
18320;SDS011;54904;54.350;18.664;2023-12-28T06:31:39;15.83;;;6.73;;
18320;SDS011;54904;54.350;18.664;2023-12-28T06:34:06;17.33;;;6.87;;
18320;SDS011;54904;54.350;18.664;2023-12-28T06:36:33;12.77;;;5.57;;
18320;SDS011;54904;54.350;18.664;2023-12-28T06:39:00;12.37;;;6.40;;
18320;SDS011;54904;54.350;18.664;2023-12-28T06:41:29;13.93;;;5.90;;
18320;SDS011;54904;54.350;18.664;2023-12-28T06:43:56;17.13;;;7.43;;
18320;SDS011;54904;54.350;18.664;2023-12-28T06:46:23;15.77;;;6.97;;
18320;SDS011;54904;54.350;18.664;2023-12-28T06:48:50;20.17;;;8.23;;
18320;SDS011;54904;54.350;18.664;2023-12-28T06:51:17;25.10;;;8.60;;
18320;SDS011;54904;54.350;18.664;2023-12-28T06:53:44;18.47;;;8.07;;
18320;SDS011;54904;54.350;18.664;2023-12-28T06:56:12;16.47;;;7.00;;
18320;SDS011;54904;54.350;18.664;2023-12-28T06:58:41;15.20;;;7.37;;
18320;SDS011;54904;54.350;18.664;2023-12-28T07:01:09;14.07;;;6.30;;
18320;SDS011;54904;54.350;18.664;2023-12-28T07:03:36;15.30;;;7.57;;
18320;SDS011;54904;54.350;18.664;2023-12-28T07:06:03;20.20;;;8.00;;
18320;SDS011;54904;54.350;18.664;2023-12-28T07:08:30;17.53;;;8.70;;
18320;SDS011;54904;54.350;18.664;2023-12-28T07:11:01;17.27;;;7.70;;
18320;SDS011;54904;54.350;18.664;2023-12-28T07:13:28;23.30;;;8.70;;
18320;SDS011;54904;54.350;18.664;2023-12-28T07:15:57;18.33;;;7.73;;
18320;SDS011;54904;54.350;18.664;2023-12-28T07:18:24;14.60;;;7.57;;
18320;SDS011;54904;54.350;18.664;2023-12-28T07:20:51;20.50;;;8.60;;
18320;SDS011;54904;54.350;18.664;2023-12-28T07:23:19;18.87;;;8.50;;
18320;SDS011;54904;54.350;18.664;2023-12-28T07:25:46;18.30;;;8.00;;
18320;SDS011;54904;54.350;18.664;2023-12-28T07:28:13;20.73;;;8.97;;
18320;SDS011;54904;54.350;18.664;2023-12-28T07:30:40;19.60;;;8.23;;
18320;SDS011;54904;54.350;18.664;2023-12-28T07:33:08;20.90;;;8.80;;
18320;SDS011;54904;54.350;18.664;2023-12-28T07:35:35;17.57;;;7.90;;
18320;SDS011;54904;54.350;18.664;2023-12-28T07:38:02;18.47;;;7.73;;
18320;SDS011;54904;54.350;18.664;2023-12-28T07:40:30;16.53;;;7.70;;
18320;SDS011;54904;54.350;18.664;2023-12-28T07:42:57;18.23;;;7.60;;
18320;SDS011;54904;54.350;18.664;2023-12-28T07:45:24;17.17;;;7.93;;
18320;SDS011;54904;54.350;18.664;2023-12-28T07:47:51;19.40;;;8.33;;
18320;SDS011;54904;54.350;18.664;2023-12-28T07:50:22;17.47;;;7.53;;
18320;SDS011;54904;54.350;18.664;2023-12-28T07:52:49;14.33;;;7.07;;
18320;SDS011;54904;54.350;18.664;2023-12-28T07:55:16;19.10;;;7.93;;
18320;SDS011;54904;54.350;18.664;2023-12-28T07:57:43;18.13;;;8.13;;
18320;SDS011;54904;54.350;18.664;2023-12-28T08:00:10;24.67;;;8.87;;
18320;SDS011;54904;54.350;18.664;2023-12-28T08:02:38;21.53;;;8.50;;
18320;SDS011;54904;54.350;18.664;2023-12-28T08:05:05;18.40;;;8.87;;
18320;SDS011;54904;54.350;18.664;2023-12-28T08:07:35;19.50;;;8.00;;
18320;SDS011;54904;54.350;18.664;2023-12-28T08:10:02;23.80;;;10.03;;
18320;SDS011;54904;54.350;18.664;2023-12-28T08:12:30;22.77;;;9.80;;
18320;SDS011;54904;54.350;18.664;2023-12-28T08:14:59;15.57;;;8.10;;
18320;SDS011;54904;54.350;18.664;2023-12-28T08:17:26;14.27;;;8.60;;
18320;SDS011;54904;54.350;18.664;2023-12-28T08:19:53;17.20;;;8.63;;
18320;SDS011;54904;54.350;18.664;2023-12-28T08:22:20;15.67;;;7.43;;
18320;SDS011;54904;54.350;18.664;2023-12-28T08:24:49;12.57;;;6.27;;
18320;SDS011;54904;54.350;18.664;2023-12-28T08:27:16;20.27;;;7.03;;
18320;SDS011;54904;54.350;18.664;2023-12-28T08:29:43;16.33;;;7.57;;
18320;SDS011;54904;54.350;18.664;2023-12-28T08:32:10;11.73;;;6.17;;
18320;SDS011;54904;54.350;18.664;2023-12-28T08:34:37;14.87;;;7.40;;
18320;SDS011;54904;54.350;18.664;2023-12-28T08:37:05;19.70;;;7.50;;
18320;SDS011;54904;54.350;18.664;2023-12-28T08:39:32;18.30;;;7.80;;
18320;SDS011;54904;54.350;18.664;2023-12-28T08:42:00;15.23;;;6.97;;
18320;SDS011;54904;54.350;18.664;2023-12-28T08:44:27;11.23;;;5.63;;
18320;SDS011;54904;54.350;18.664;2023-12-28T08:46:54;9.20;;;5.00;;
18320;SDS011;54904;54.350;18.664;2023-12-28T08:49:21;11.27;;;5.10;;
18320;SDS011;54904;54.350;18.664;2023-12-28T08:51:48;10.60;;;5.37;;
18320;SDS011;54904;54.350;18.664;2023-12-28T08:54:15;11.13;;;5.70;;
18320;SDS011;54904;54.350;18.664;2023-12-28T08:56:42;14.37;;;7.13;;
18320;SDS011;54904;54.350;18.664;2023-12-28T08:59:11;16.23;;;6.47;;
18320;SDS011;54904;54.350;18.664;2023-12-28T09:01:38;11.63;;;6.17;;
18320;SDS011;54904;54.350;18.664;2023-12-28T09:04:05;9.30;;;5.07;;
18320;SDS011;54904;54.350;18.664;2023-12-28T09:06:33;8.57;;;5.20;;
18320;SDS011;54904;54.350;18.664;2023-12-28T09:09:00;9.10;;;4.90;;
18320;SDS011;54904;54.350;18.664;2023-12-28T09:11:29;9.80;;;4.70;;
18320;SDS011;54904;54.350;18.664;2023-12-28T09:13:55;8.73;;;4.80;;
18320;SDS011;54904;54.350;18.664;2023-12-28T09:16:24;8.70;;;4.80;;
18320;SDS011;54904;54.350;18.664;2023-12-28T09:18:53;13.57;;;6.00;;
18320;SDS011;54904;54.350;18.664;2023-12-28T09:21:20;11.73;;;6.73;;
18320;SDS011;54904;54.350;18.664;2023-12-28T09:23:47;12.17;;;6.23;;
18320;SDS011;54904;54.350;18.664;2023-12-28T09:26:14;14.90;;;7.00;;
18320;SDS011;54904;54.350;18.664;2023-12-28T09:28:41;14.50;;;6.90;;
18320;SDS011;54904;54.350;18.664;2023-12-28T09:31:10;13.47;;;6.97;;
18320;SDS011;54904;54.350;18.664;2023-12-28T09:33:39;13.50;;;7.77;;
18320;SDS011;54904;54.350;18.664;2023-12-28T09:36:06;12.53;;;6.53;;
18320;SDS011;54904;54.350;18.664;2023-12-28T09:38:34;11.17;;;6.10;;
18320;SDS011;54904;54.350;18.664;2023-12-28T09:41:04;15.07;;;6.90;;
18320;SDS011;54904;54.350;18.664;2023-12-28T09:43:51;13.40;;;6.10;;
18320;SDS011;54904;54.350;18.664;2023-12-28T09:46:20;12.33;;;6.67;;
18320;SDS011;54904;54.350;18.664;2023-12-28T09:48:49;13.17;;;6.33;;
18320;SDS011;54904;54.350;18.664;2023-12-28T09:51:19;18.07;;;8.77;;
18320;SDS011;54904;54.350;18.664;2023-12-28T09:53:46;16.53;;;7.90;;
18320;SDS011;54904;54.350;18.664;2023-12-28T09:56:13;17.53;;;8.63;;
18320;SDS011;54904;54.350;18.664;2023-12-28T09:58:40;18.67;;;8.70;;
18320;SDS011;54904;54.350;18.664;2023-12-28T10:01:09;19.77;;;8.70;;
18320;SDS011;54904;54.350;18.664;2023-12-28T10:03:36;22.63;;;9.17;;
18320;SDS011;54904;54.350;18.664;2023-12-28T10:06:05;20.00;;;8.40;;
18320;SDS011;54904;54.350;18.664;2023-12-28T10:08:32;15.10;;;8.17;;
18320;SDS011;54904;54.350;18.664;2023-12-28T10:11:00;17.83;;;8.40;;
18320;SDS011;54904;54.350;18.664;2023-12-28T10:13:27;16.97;;;7.83;;
18320;SDS011;54904;54.350;18.664;2023-12-28T10:15:56;17.23;;;8.57;;
18320;SDS011;54904;54.350;18.664;2023-12-28T10:18:24;22.43;;;8.53;;
18320;SDS011;54904;54.350;18.664;2023-12-28T10:20:51;14.97;;;8.23;;
18320;SDS011;54904;54.350;18.664;2023-12-28T10:23:20;13.73;;;6.73;;
18320;SDS011;54904;54.350;18.664;2023-12-28T10:25:48;18.03;;;7.93;;
18320;SDS011;54904;54.350;18.664;2023-12-28T10:28:18;20.70;;;8.00;;
18320;SDS011;54904;54.350;18.664;2023-12-28T10:30:46;16.03;;;7.80;;
18320;SDS011;54904;54.350;18.664;2023-12-28T10:33:13;9.63;;;6.10;;
18320;SDS011;54904;54.350;18.664;2023-12-28T10:35:41;16.10;;;7.70;;
18320;SDS011;54904;54.350;18.664;2023-12-28T10:38:09;12.97;;;7.20;;
18320;SDS011;54904;54.350;18.664;2023-12-28T10:40:41;15.73;;;7.50;;
18320;SDS011;54904;54.350;18.664;2023-12-28T10:43:09;14.33;;;7.37;;
18320;SDS011;54904;54.350;18.664;2023-12-28T10:45:40;12.73;;;6.97;;
18320;SDS011;54904;54.350;18.664;2023-12-28T10:48:09;15.93;;;8.80;;
18320;SDS011;54904;54.350;18.664;2023-12-28T10:50:38;14.07;;;7.40;;
18320;SDS011;54904;54.350;18.664;2023-12-28T10:53:13;15.17;;;7.17;;
18320;SDS011;54904;54.350;18.664;2023-12-28T10:55:58;14.10;;;7.30;;
18320;SDS011;54904;54.350;18.664;2023-12-28T10:58:48;19.63;;;8.40;;
18320;SDS011;54904;54.350;18.664;2023-12-28T11:01:17;20.87;;;9.27;;
18320;SDS011;54904;54.350;18.664;2023-12-28T11:03:51;21.63;;;8.83;;
18320;SDS011;54904;54.350;18.664;2023-12-28T11:06:34;22.40;;;9.10;;
18320;SDS011;54904;54.350;18.664;2023-12-28T11:09:03;15.73;;;7.43;;
18320;SDS011;54904;54.350;18.664;2023-12-28T11:11:34;14.93;;;7.10;;
18320;SDS011;54904;54.350;18.664;2023-12-28T11:14:02;11.33;;;5.97;;
18320;SDS011;54904;54.350;18.664;2023-12-28T11:16:30;10.53;;;5.63;;
18320;SDS011;54904;54.350;18.664;2023-12-28T11:18:59;11.57;;;6.63;;
18320;SDS011;54904;54.350;18.664;2023-12-28T11:21:27;12.47;;;6.20;;
18320;SDS011;54904;54.350;18.664;2023-12-28T11:23:54;8.33;;;5.67;;
18320;SDS011;54904;54.350;18.664;2023-12-28T11:26:22;11.30;;;6.43;;
18320;SDS011;54904;54.350;18.664;2023-12-28T11:28:51;10.33;;;5.67;;
18320;SDS011;54904;54.350;18.664;2023-12-28T11:31:32;9.90;;;5.73;;
18320;SDS011;54904;54.350;18.664;2023-12-28T11:34:00;12.33;;;6.23;;
18320;SDS011;54904;54.350;18.664;2023-12-28T11:36:34;10.47;;;5.97;;
18320;SDS011;54904;54.350;18.664;2023-12-28T11:39:05;9.57;;;6.03;;
18320;SDS011;54904;54.350;18.664;2023-12-28T11:41:33;11.37;;;5.53;;
18320;SDS011;54904;54.350;18.664;2023-12-28T11:44:03;7.03;;;4.80;;
18320;SDS011;54904;54.350;18.664;2023-12-28T11:46:32;8.80;;;4.97;;
18320;SDS011;54904;54.350;18.664;2023-12-28T11:49:05;9.73;;;6.03;;
18320;SDS011;54904;54.350;18.664;2023-12-28T11:51:33;7.37;;;5.10;;
18320;SDS011;54904;54.350;18.664;2023-12-28T11:54:05;10.47;;;6.60;;
18320;SDS011;54904;54.350;18.664;2023-12-28T11:56:33;16.63;;;7.40;;
18320;SDS011;54904;54.350;18.664;2023-12-28T11:59:00;16.77;;;8.63;;
18320;SDS011;54904;54.350;18.664;2023-12-28T12:01:28;17.60;;;8.13;;
18320;SDS011;54904;54.350;18.664;2023-12-28T12:03:55;12.97;;;7.50;;
18320;SDS011;54904;54.350;18.664;2023-12-28T12:06:23;14.63;;;6.80;;
18320;SDS011;54904;54.350;18.664;2023-12-28T12:08:50;12.93;;;6.97;;
18320;SDS011;54904;54.350;18.664;2023-12-28T12:11:17;14.20;;;6.87;;
18320;SDS011;54904;54.350;18.664;2023-12-28T12:13:46;14.70;;;7.30;;
18320;SDS011;54904;54.350;18.664;2023-12-28T12:16:16;14.40;;;7.50;;
18320;SDS011;54904;54.350;18.664;2023-12-28T12:18:48;13.20;;;6.83;;
18320;SDS011;54904;54.350;18.664;2023-12-28T12:21:15;14.77;;;6.93;;
18320;SDS011;54904;54.350;18.664;2023-12-28T12:23:43;15.57;;;6.63;;
18320;SDS011;54904;54.350;18.664;2023-12-28T12:26:10;14.33;;;7.10;;
18320;SDS011;54904;54.350;18.664;2023-12-28T12:28:38;10.77;;;5.40;;
18320;SDS011;54904;54.350;18.664;2023-12-28T12:31:07;10.00;;;5.37;;
18320;SDS011;54904;54.350;18.664;2023-12-28T12:33:35;5.37;;;3.87;;
18320;SDS011;54904;54.350;18.664;2023-12-28T12:36:05;4.67;;;3.43;;
18320;SDS011;54904;54.350;18.664;2023-12-28T12:38:33;6.73;;;3.77;;
18320;SDS011;54904;54.350;18.664;2023-12-28T12:41:00;7.20;;;3.20;;
18320;SDS011;54904;54.350;18.664;2023-12-28T12:43:27;3.50;;;2.87;;
18320;SDS011;54904;54.350;18.664;2023-12-28T12:45:54;5.23;;;2.83;;
18320;SDS011;54904;54.350;18.664;2023-12-28T12:48:21;3.47;;;2.77;;
18320;SDS011;54904;54.350;18.664;2023-12-28T12:50:48;4.63;;;3.03;;
18320;SDS011;54904;54.350;18.664;2023-12-28T12:53:17;6.10;;;3.17;;
18320;SDS011;54904;54.350;18.664;2023-12-28T12:55:44;5.67;;;3.17;;
18320;SDS011;54904;54.350;18.664;2023-12-28T12:58:12;5.63;;;3.20;;
18320;SDS011;54904;54.350;18.664;2023-12-28T13:00:41;7.03;;;3.30;;
18320;SDS011;54904;54.350;18.664;2023-12-28T13:03:08;8.70;;;4.27;;
18320;SDS011;54904;54.350;18.664;2023-12-28T13:05:35;5.57;;;3.50;;
18320;SDS011;54904;54.350;18.664;2023-12-28T13:08:03;4.23;;;3.20;;
18320;SDS011;54904;54.350;18.664;2023-12-28T13:10:32;5.43;;;3.40;;
18320;SDS011;54904;54.350;18.664;2023-12-28T13:12:59;3.73;;;2.73;;
18320;SDS011;54904;54.350;18.664;2023-12-28T13:15:26;7.00;;;3.97;;
18320;SDS011;54904;54.350;18.664;2023-12-28T13:17:54;7.10;;;3.70;;
18320;SDS011;54904;54.350;18.664;2023-12-28T13:20:21;5.40;;;3.67;;
18320;SDS011;54904;54.350;18.664;2023-12-28T13:22:48;5.97;;;3.37;;
18320;SDS011;54904;54.350;18.664;2023-12-28T13:25:18;5.03;;;3.23;;
18320;SDS011;54904;54.350;18.664;2023-12-28T13:27:47;6.57;;;3.93;;
18320;SDS011;54904;54.350;18.664;2023-12-28T13:30:14;8.10;;;4.27;;
18320;SDS011;54904;54.350;18.664;2023-12-28T13:32:42;8.73;;;4.70;;
18320;SDS011;54904;54.350;18.664;2023-12-28T13:35:09;13.73;;;6.10;;
18320;SDS011;54904;54.350;18.664;2023-12-28T13:37:36;13.27;;;6.20;;
18320;SDS011;54904;54.350;18.664;2023-12-28T13:40:04;13.63;;;6.10;;
18320;SDS011;54904;54.350;18.664;2023-12-28T13:42:32;16.30;;;6.00;;
18320;SDS011;54904;54.350;18.664;2023-12-28T13:45:00;17.50;;;7.77;;
18320;SDS011;54904;54.350;18.664;2023-12-28T13:47:28;13.63;;;6.17;;
18320;SDS011;54904;54.350;18.664;2023-12-28T13:49:55;15.20;;;5.93;;
18320;SDS011;54904;54.350;18.664;2023-12-28T13:52:22;14.80;;;6.10;;
18320;SDS011;54904;54.350;18.664;2023-12-28T13:54:49;12.77;;;6.13;;
18320;SDS011;54904;54.350;18.664;2023-12-28T13:57:16;11.23;;;5.20;;
18320;SDS011;54904;54.350;18.664;2023-12-28T13:59:43;10.53;;;4.90;;
18320;SDS011;54904;54.350;18.664;2023-12-28T14:02:11;10.53;;;5.20;;
18320;SDS011;54904;54.350;18.664;2023-12-28T14:04:38;8.80;;;5.27;;
18320;SDS011;54904;54.350;18.664;2023-12-28T14:07:05;8.80;;;5.07;;
18320;SDS011;54904;54.350;18.664;2023-12-28T14:09:32;7.87;;;5.20;;
18320;SDS011;54904;54.350;18.664;2023-12-28T14:12:01;9.47;;;5.50;;
18320;SDS011;54904;54.350;18.664;2023-12-28T14:14:28;8.20;;;4.60;;
18320;SDS011;54904;54.350;18.664;2023-12-28T14:16:55;9.93;;;4.63;;
18320;SDS011;54904;54.350;18.664;2023-12-28T14:19:23;8.50;;;4.57;;
18320;SDS011;54904;54.350;18.664;2023-12-28T14:21:51;6.47;;;3.53;;
18320;SDS011;54904;54.350;18.664;2023-12-28T14:24:18;6.67;;;3.37;;
18320;SDS011;54904;54.350;18.664;2023-12-28T14:26:45;6.40;;;3.80;;
18320;SDS011;54904;54.350;18.664;2023-12-28T14:29:14;9.67;;;3.93;;